Flight Track Log - Related Links

Times and Time Zones

All times are in EDT time to prevent confusion due to time zone crossing. See the N87CA flight status page for this flight to view local times or setup timezone preferences in your user account.

Time Position Orientation Groundspeed Altitude Reporting Facility
EDT Latitude Longitude Course Direction KTS km/h feet Rate Location/Type
Sat 16:48:00 34.8755 -82.5490 239° Southwest  Level FlightAware Approximate
Sat 16:48:44 34.7875 -82.5947 253° West 119 220 7,800  Level Atlanta Center
Sat 16:49:00 34.8607 -82.5967 256° West  Level FlightAware Approximate
Sat 16:49:44 34.7797 -82.6428 259° West 160 296 7,900  Level Atlanta Center
Sat 16:50:00 34.8507 -82.6467 256° West  Level FlightAware Approximate
Sat 16:50:44 34.7742 -82.6936 262° West 174 322 7,900  Level Atlanta Center
Sat 16:51:00 34.8321 -82.6883 253° West  Level FlightAware Approximate
Sat 16:51:44 34.7664 -82.7492 260° West 176 327 8,000  Level Atlanta Center
Sat 16:52:00 34.8198 -82.7376 253° West  Level FlightAware Approximate
Sat 16:52:44 34.7586 -82.8100 261° West 181 335 7,900  Level Atlanta Center
Sat 16:53:00 34.8075 -82.7869 253° West  Level FlightAware Approximate
Sat 16:53:44 34.7508 -82.8658 260° West 181 335 7,900  Level Atlanta Center
Sat 16:54:00 34.7952 -82.8362 253° West  Level FlightAware Approximate
Sat 16:54:44 34.7450 -82.9267 263° West 181 335 7,900  Level Atlanta Center
Sat 16:55:44 34.7353 -82.9847 258° West 175 323 7,900  Level Atlanta Center
Sat 16:56:44 34.7272 -83.0481 261° West 181 335 7,900  Level Atlanta Center
Sat 16:57:44 34.7047 -83.0964 240° Southwest 181 335 7,900  Level Atlanta Center
Sat 16:58:44 34.6739 -83.1369 227° Southwest 176 327 7,900  Level Atlanta Center
Sat 16:59:44 34.6386 -83.1881 230° Southwest 183 340 7,900  Level Atlanta Center
Sat 17:00:44 34.6036 -83.2336 227° Southwest 188 348 7,900  Level Atlanta Center
Sat 17:01:44 34.5744 -83.2744 229° Southwest 181 335 7,900  Level Atlanta Center
Sat 17:02:44 34.5394 -83.3200 227° Southwest 181 335 7,900 -50 Level Atlanta Center
Sat 17:03:44 34.5061 -83.3683 230° Southwest 187 346 7,800 -250 Descending Atlanta Center
Sat 17:04:44 34.4708 -83.4139 227° Southwest 187 346 7,400 -500 Descending Atlanta Center
Sat 17:05:44 34.4275 -83.4722 228° Southwest 202 373 6,800 -600 Descending Atlanta Center
Sat 17:06:44 34.3942 -83.5203 230° Southwest 207 383 6,200 -450 Descending Atlanta Center
Sat 17:07:44 34.3611 -83.5633 227° Southwest 207 383 5,900 -150 Descending Atlanta Center
Sat 17:08:44 34.3278 -83.6086 228° Southwest 191 354 5,900 50 Level Atlanta Center
Sat 17:09:44 34.2925 -83.6542 227° Southwest 186 344 6,000 50 Climbing Atlanta Center
Sat 17:10:44 34.2592 -83.6969 227° Southwest 186 344 6,000  Level Atlanta Center
Sat 17:11:44 34.2281 -83.7447 232° Southwest 186 344 6,000  Level Atlanta Center
Sat 17:12:44 34.1906 -83.7903 225° Southwest 186 344 6,000  Level Atlanta Center
Sat 17:13:44 34.1553 -83.8381 228° Southwest 186 344 6,000  Level Atlanta Center
Sat 17:15:01 34.1167 -83.9000 233° Southwest 183 340 6,000  Level Atlanta TRACON
Sat 17:16:01 34.0833 -83.9333 220° Southwest 183 340 6,000  Level Atlanta TRACON
Sat 17:17:01 34.0333 -83.9833 220° Southwest 183 340 6,000 -200 Level Atlanta TRACON
Sat 17:18:01 34.0000 -84.0333 231° Southwest 192 356 5,600 -400 Descending Atlanta TRACON
Sat 17:19:01 33.9667 -84.0833 231° Southwest 195 360 5,200 -350 Descending Atlanta TRACON
Sat 17:20:01 33.9333 -84.1333 231° Southwest 190 352 4,900 -200 Descending Atlanta TRACON
Sat 17:21:01 33.9000 -84.1667 220° Southwest 183 340 4,800 -350 Descending Atlanta TRACON
Sat 17:22:01 33.8667 -84.2167 231° Southwest 174 322 4,200 -450 Descending Atlanta TRACON
Sat 17:23:01 33.8333 -84.2500 220° Southwest 144 267 3,900 -250 Descending Atlanta TRACON
Sat 17:24:01 33.8167 -84.2833 239° Southwest 131 243 3,700 -350 Descending Atlanta TRACON
Sat 17:25:01 33.8000 -84.3333 248° West 152 282 3,200 -550 Descending Atlanta TRACON
Sat 17:26:01 33.8000 -84.3833 270° West 157 291 2,600 -400 Descending Atlanta TRACON
Sat 17:27:01 33.8000 -84.4333 270° West 135 249 2,400 -500 Descending Atlanta TRACON
Sat 17:28:01 33.7833 -84.4667 239° Southwest 112 208 1,600 -800 Descending Atlanta TRACON
Sat 17:30:00 33.7667 -84.5167 239° Southwest  Level FlightAware Approximate
Sat 17:37:00 33.7791 -84.5214 239° Southwest  Level Estimated

Login

Don't have an account? Register now (free) for customized features, flight alerts, and more!